Time;durP1;ratioP1;P1;durP2;ratioP2;P2;SDS_P1;SDS_P2;PMS_P1;PMS_P2;Temp;Humidity;BMP_temperature;BMP_pressure;BME280_temperature;BME280_humidity;BME280_pressure;Samples;Min_cycle;Max_cycle;Signal;HPM_P1;HPM_P2
2022/01/03 00:01:39;;;;;;;;;;;;;;;14.65;44.23;99046.38;4482567;32;34961;-86
2022/01/03 00:04:08;;;;;;;;;;;;;;;14.33;44.72;99036.09;4483096;32;34378;-88
2022/01/03 00:06:35;;;;;;;;;;;;;;;14.82;43.54;99030.63;4484205;32;34022;-88
2022/01/03 00:09:02;;;;;;;;;;;;;;;14.74;43.46;99022.00;4483870;32;32961;-88
2022/01/03 00:11:30;;;;;;;;;;;;;;;15.11;42.73;99032.16;4483771;32;34282;-87
2022/01/03 00:13:57;;;;;;;;;;;;;;;14.89;42.87;99040.16;4483451;32;35231;-89
2022/01/03 00:16:25;;;;;;;;;;;;;;;14.74;42.95;99029.81;4483838;32;34293;-88
2022/01/03 00:18:52;;;;;;;;;;;;;;;14.86;42.97;99036.69;4483625;32;33259;-84
2022/01/03 00:21:20;;;;;;;;;;;;;;;14.90;42.82;99026.22;4482295;32;33967;-85
2022/01/03 00:23:49;;;;;;;;;;;;;;;14.35;44.07;99031.72;4483677;32;34462;-89
2022/01/03 00:26:23;;;;;;;;;;;;;;;14.25;44.48;99043.09;4483836;32;34142;-86
2022/01/03 00:28:57;;;;;;;;;;;;;;;14.43;43.90;99029.94;4482489;32;33450;-88
2022/01/03 00:31:29;;;;;;;;;;;;;;;14.64;43.36;99033.34;4482018;32;35145;-84
2022/01/03 00:33:57;;;;;;;;;;;;;;;14.90;42.43;99028.84;4482227;32;35349;-84
2022/01/03 00:36:27;;;;;;;;;;;;;;;15.30;41.33;99015.44;4482468;32;34102;-88
2022/01/03 00:38:54;;;;;;;;;;;;;;;15.09;41.60;99026.97;4483567;32;33562;-84
2022/01/03 00:41:22;;;;;;;;;;;;;;;14.82;41.71;99014.97;4482776;32;34084;-86
2022/01/03 00:43:53;;;;;;;;;;;;;;;14.59;42.34;99015.97;4483334;32;34457;-89
2022/01/03 00:46:21;;;;;;;;;;;;;;;14.84;41.78;99018.44;4483301;31;34108;-85
2022/01/03 00:48:49;;;;;;;;;;;;;;;14.68;41.81;99020.28;4482574;32;33053;-86
2022/01/03 00:51:19;;;;;;;;;;;;;;;14.92;41.42;99021.84;4483323;32;34583;-86
2022/01/03 00:53:47;;;;;;;;;;;;;;;14.20;42.73;99031.78;4483395;32;34151;-86
2022/01/03 00:56:15;;;;;;;;;;;;;;;14.14;42.83;99030.09;4483806;32;34246;-89
2022/01/03 00:58:50;;;;;;;;;;;;;;;13.90;44.42;99023.19;4482141;32;33547;-86
2022/01/03 01:01:18;;;;;;;;;;;;;;;13.70;45.35;99038.03;4483545;32;34362;-89
2022/01/03 01:03:47;;;;;;;;;;;;;;;13.60;45.48;99035.44;4482135;32;35319;-86
2022/01/03 01:06:15;;;;;;;;;;;;;;;14.02;44.52;99036.22;4482538;32;34946;-89
2022/01/03 01:08:43;;;;;;;;;;;;;;;13.81;44.81;99031.91;4482279;32;33414;-89
2022/01/03 01:11:10;;;;;;;;;;;;;;;13.12;45.70;99034.56;4481443;32;34635;-85
2022/01/03 01:13:39;;;;;;;;;;;;;;;12.36;48.63;99032.69;4481743;32;35169;-85
2022/01/03 01:16:07;;;;;;;;;;;;;;;12.39;49.35;99026.63;4483784;31;34067;-87
2022/01/03 01:18:37;;;;;;;;;;;;;;;13.17;47.18;99015.47;4482332;32;32960;-88
2022/01/03 01:21:04;;;;;;;;;;;;;;;13.10;46.88;99022.41;4465711;32;33703;-87
2022/01/03 01:23:32;;;;;;;;;;;;;;;13.29;46.24;99024.16;4469263;32;34361;-88
2022/01/03 01:28:46;;;;;;;;;;;;;;;14.01;44.25;99016.19;4482303;32;34102;-87
2022/01/03 01:31:15;;;;;;;;;;;;;;;14.21;43.64;99002.25;4483120;32;34222;-87
2022/01/03 01:33:43;;;;;;;;;;;;;;;13.82;44.22;99004.97;4481566;32;33859;-87
2022/01/03 01:36:12;;;;;;;;;;;;;;;13.98;43.76;99003.22;4483500;32;34283;-88
2022/01/03 01:38:39;;;;;;;;;;;;;;;14.20;43.27;98990.06;4483422;32;33571;-89
2022/01/03 01:41:07;;;;;;;;;;;;;;;13.78;43.99;98991.97;4482350;32;34320;-88
2022/01/03 01:43:39;;;;;;;;;;;;;;;13.87;43.69;98992.81;4482006;32;34931;-89
2022/01/03 01:46:09;;;;;;;;;;;;;;;14.30;42.82;98989.16;4482617;32;33957;-85
2022/01/03 01:48:37;;;;;;;;;;;;;;;14.33;42.52;98981.31;4483361;32;34041;-89
2022/01/03 01:51:07;;;;;;;;;;;;;;;14.18;42.60;98986.63;4469160;32;33636;-85
2022/01/03 01:53:45;;;;;;;;;;;;;;;14.38;42.28;98982.16;4481741;32;35380;-88
2022/01/03 01:56:16;;;;;;;;;;;;;;;14.18;42.75;98986.63;4483284;32;34851;-90
2022/01/03 01:59:03;;;;;;;;;;;;;;;14.54;42.01;98976.00;4481295;32;33180;-88
2022/01/03 02:01:56;;;;;;;;;;;;;;;14.24;42.36;98989.19;4482920;32;34777;-89
2022/01/03 02:04:30;;;;;;;;;;;;;;;14.24;42.18;98997.84;4480926;32;35202;-90
2022/01/03 02:07:14;;;;;;;;;;;;;;;14.44;41.98;98971.69;4482883;32;34998;-86
2022/01/03 02:09:49;;;;;;;;;;;;;;;14.14;42.43;98984.91;4483005;32;34267;-87
2022/01/03 02:12:16;;;;;;;;;;;;;;;14.26;42.29;98995.25;4481208;32;33648;-90
2022/01/03 02:14:47;;;;;;;;;;;;;;;13.82;43.22;98989.34;4482967;32;34014;-85
2022/01/03 02:17:14;;;;;;;;;;;;;;;13.92;43.22;98984.97;4466226;32;34551;-90
2022/01/03 02:19:41;;;;;;;;;;;;;;;13.75;43.83;98991.97;4467452;32;33699;-86
2022/01/03 02:22:10;;;;;;;;;;;;;;;13.62;44.34;98992.00;4475131;32;34641;-88
2022/01/03 02:24:40;;;;;;;;;;;;;;;13.95;43.83;98986.72;4481805;31;34245;-90
2022/01/03 02:27:07;;;;;;;;;;;;;;;14.07;43.42;98977.09;4482553;32;33771;-89
2022/01/03 02:29:34;;;;;;;;;;;;;;;14.12;43.34;98971.84;4482684;32;33404;-88
2022/01/03 02:32:02;;;;;;;;;;;;;;;14.00;43.28;98967.56;4481193;32;34338;-89
2022/01/03 02:34:29;;;;;;;;;;;;;;;13.88;44.10;98968.47;4483003;32;34149;-86
2022/01/03 02:36:57;;;;;;;;;;;;;;;13.93;44.38;98973.66;4482574;32;34102;-88
2022/01/03 02:39:25;;;;;;;;;;;;;;;13.37;45.13;98957.34;4481651;32;32938;-85
2022/01/03 02:41:52;;;;;;;;;;;;;;;13.22;45.90;98959.94;4480483;32;33828;-88
2022/01/03 02:44:20;;;;;;;;;;;;;;;13.16;46.29;98946.94;4483134;32;34003;-89
2022/01/03 02:46:47;;;;;;;;;;;;;;;12.96;47.39;98952.16;4482683;32;34660;-88
2022/01/03 02:49:15;;;;;;;;;;;;;;;13.03;47.49;98955.59;4482666;32;34258;-90
2022/01/03 02:51:45;;;;;;;;;;;;;;;13.08;47.32;98964.28;4482697;32;33771;-90
2022/01/03 02:54:13;;;;;;;;;;;;;;;13.22;47.56;98965.16;4481567;32;33538;-88
2022/01/03 02:56:41;;;;;;;;;;;;;;;12.93;48.68;98956.50;4481809;32;33499;-88
2022/01/03 02:59:15;;;;;;;;;;;;;;;13.23;48.60;98966.03;4481704;32;33469;-86
2022/01/03 03:01:43;;;;;;;;;;;;;;;13.72;47.14;98958.13;4482433;32;35105;-89
2022/01/03 03:04:10;;;;;;;;;;;;;;;13.56;48.06;98970.31;4482226;32;34845;-89
2022/01/03 03:06:38;;;;;;;;;;;;;;;13.66;47.68;98977.25;4481787;32;34941;-90
2022/01/03 03:09:07;;;;;;;;;;;;;;;13.85;47.40;98983.25;4482167;32;33473;-89
2022/01/03 03:11:35;;;;;;;;;;;;;;;13.78;47.56;98982.41;4480903;32;35094;-88
2022/01/03 03:14:03;;;;;;;;;;;;;;;14.31;45.97;98962.19;4468157;32;33927;-86
2022/01/03 03:16:30;;;;;;;;;;;;;;;14.25;46.19;98957.91;4480557;32;34080;-85
2022/01/03 03:18:58;;;;;;;;;;;;;;;14.09;46.41;98977.97;4481753;32;34141;-87
2022/01/03 03:21:27;;;;;;;;;;;;;;;14.64;45.10;98965.50;4482060;32;35302;-89
2022/01/03 03:23:55;;;;;;;;;;;;;;;14.63;45.21;98959.44;4480706;32;35260;-88
2022/01/03 03:26:23;;;;;;;;;;;;;;;14.49;45.58;98967.34;4480365;32;34800;-89
2022/01/03 03:28:50;;;;;;;;;;;;;;;14.71;45.02;98956.78;4482078;32;33461;-89
2022/01/03 03:31:18;;;;;;;;;;;;;;;14.47;45.34;98958.66;4480593;31;34089;-89
2022/01/03 03:33:45;;;;;;;;;;;;;;;14.88;44.59;98967.06;4481772;32;34291;-88
2022/01/03 03:36:12;;;;;;;;;;;;;;;14.81;44.77;98955.81;4481509;32;34925;-84
2022/01/03 03:38:40;;;;;;;;;;;;;;;14.52;45.17;98956.91;4481828;32;34051;-88
2022/01/03 03:41:08;;;;;;;;;;;;;;;14.58;45.43;98969.91;4482010;32;35016;-89
2022/01/03 03:43:35;;;;;;;;;;;;;;;14.67;45.23;98978.56;4482682;32;35197;-90
2022/01/03 03:46:03;;;;;;;;;;;;;;;14.74;45.05;98972.41;4483890;32;34510;-85
2022/01/03 03:48:33;;;;;;;;;;;;;;;14.65;45.25;98967.25;4484204;32;34406;-89
2022/01/03 03:51:00;;;;;;;;;;;;;;;14.69;43.87;98968.94;4484374;32;34950;-89
2022/01/03 03:53:28;;;;;;;;;;;;;;;14.43;44.48;98977.75;4484214;32;35262;-90
2022/01/03 03:55:55;;;;;;;;;;;;;;;14.36;44.00;98969.12;4483727;32;34688;-89
2022/01/03 03:58:23;;;;;;;;;;;;;;;14.73;43.45;98966.31;4483326;32;33617;-87
2022/01/03 04:00:50;;;;;;;;;;;;;;;14.44;44.17;98952.56;4483897;32;35036;-85
2022/01/03 04:03:36;;;;;;;;;;;;;;;15.14;42.87;98962.50;4484059;32;34849;-90
2022/01/03 04:06:04;;;;;;;;;;;;;;;14.41;44.85;98978.69;4484038;32;34326;-89
2022/01/03 04:08:31;;;;;;;;;;;;;;;14.70;43.64;98955.91;4482973;32;33159;-88
2022/01/03 04:10:59;;;;;;;;;;;;;;;14.54;44.18;98942.06;4484151;32;34320;-89
2022/01/03 04:13:26;;;;;;;;;;;;;;;13.83;46.03;98958.97;4484103;32;34284;-89
2022/01/03 04:15:54;;;;;;;;;;;;;;;14.03;45.50;98971.91;4483957;32;34060;-86
2022/01/03 04:18:21;;;;;;;;;;;;;;;14.18;45.19;98978.78;4483837;32;34236;-89
2022/01/03 04:20:48;;;;;;;;;;;;;;;13.14;47.35;98959.97;4483972;32;34857;-89
2022/01/03 04:23:16;;;;;;;;;;;;;;;13.91;45.98;98972.81;4483249;32;34288;-89
2022/01/03 04:25:44;;;;;;;;;;;;;;;13.79;46.44;98980.69;4484204;32;34089;-89
2022/01/03 04:28:11;;;;;;;;;;;;;;;14.68;44.43;98972.44;4483649;32;34209;-90
2022/01/03 04:30:40;;;;;;;;;;;;;;;15.07;43.46;98961.69;4484063;32;34000;-90
2022/01/03 04:33:08;;;;;;;;;;;;;;;14.73;44.35;98975.88;4483572;32;34215;-87
2022/01/03 04:35:36;;;;;;;;;;;;;;;15.08;43.72;98984.31;4483124;32;34154;-86
2022/01/03 04:38:03;;;;;;;;;;;;;;;14.96;43.92;98968.72;4483892;32;33231;-87
2022/01/03 04:40:31;;;;;;;;;;;;;;;14.62;44.78;98983.78;4483839;32;35188;-89
2022/01/03 04:42:58;;;;;;;;;;;;;;;14.92;44.10;98985.28;4483737;32;35487;-89
2022/01/03 04:45:26;;;;;;;;;;;;;;;15.02;44.02;98981.75;4483767;31;33971;-88
2022/01/03 04:47:56;;;;;;;;;;;;;;;14.96;44.04;98965.25;4483508;32;34452;-84
2022/01/03 04:50:24;;;;;;;;;;;;;;;15.16;43.59;98965.13;4468172;32;34469;-89
2022/01/03 04:52:51;;;;;;;;;;;;;;;15.24;43.42;98976.34;4474153;32;34399;-87
2022/01/03 04:55:19;;;;;;;;;;;;;;;15.10;43.22;98950.34;4481667;32;34020;-86
2022/01/03 04:57:46;;;;;;;;;;;;;;;15.07;43.77;98971.25;4483767;32;34028;-88
2022/01/03 05:00:15;;;;;;;;;;;;;;;14.78;44.56;98963.69;4481771;32;35046;-86
2022/01/03 05:02:43;;;;;;;;;;;;;;;15.17;43.69;98972.91;4482745;32;34389;-89
2022/01/03 05:05:11;;;;;;;;;;;;;;;15.04;43.99;98960.88;4483431;32;34750;-88
2022/01/03 05:07:38;;;;;;;;;;;;;;;14.93;44.30;98973.16;4481052;32;33230;-88
2022/01/03 05:10:06;;;;;;;;;;;;;;;14.51;45.40;98960.38;4468177;32;33593;-87
2022/01/03 05:12:33;;;;;;;;;;;;;;;14.58;45.31;98954.25;4474433;32;33832;-85
2022/01/03 05:15:01;;;;;;;;;;;;;;;14.76;44.90;98953.22;4482513;32;33859;-87
2022/01/03 05:17:31;;;;;;;;;;;;;;;14.74;45.02;98956.75;4474051;32;33093;-84
2022/01/03 05:19:58;;;;;;;;;;;;;;;15.02;44.13;98953.03;4481681;32;34923;-85
2022/01/03 05:22:26;;;;;;;;;;;;;;;15.23;43.86;98951.97;4480166;32;35145;-85
2022/01/03 05:24:54;;;;;;;;;;;;;;;14.63;45.29;98949.00;4481022;32;35051;-88
2022/01/03 05:27:21;;;;;;;;;;;;;;;15.31;43.93;98946.69;4477587;32;34067;-87
2022/01/03 05:29:49;;;;;;;;;;;;;;;15.50;43.42;98948.22;4482104;32;34368;-85
2022/01/03 05:32:16;;;;;;;;;;;;;;;15.24;44.05;98932.81;4482633;32;34924;-85
2022/01/03 05:34:44;;;;;;;;;;;;;;;15.66;43.19;98929.81;4482751;32;34435;-85
2022/01/03 05:37:11;;;;;;;;;;;;;;;15.78;42.96;98924.41;4482495;32;34417;-86
2022/01/03 05:39:39;;;;;;;;;;;;;;;15.52;43.46;98932.53;4483205;32;34348;-87
2022/01/03 05:42:06;;;;;;;;;;;;;;;15.53;43.57;98916.84;4480195;32;35281;-86
2022/01/03 05:44:33;;;;;;;;;;;;;;;15.39;43.77;98930.94;4481855;31;34977;-86
2022/01/03 05:47:02;;;;;;;;;;;;;;;15.78;43.13;98927.03;4479269;32;32928;-86
2022/01/03 05:49:29;;;;;;;;;;;;;;;15.99;42.76;98939.84;4482214;32;34716;-85
2022/01/03 05:51:56;;;;;;;;;;;;;;;15.99;43.19;98921.53;4479840;32;33932;-85
2022/01/03 05:54:24;;;;;;;;;;;;;;;15.70;43.75;98928.88;4478735;32;34019;-88
2022/01/03 05:56:51;;;;;;;;;;;;;;;15.80;43.58;98930.50;4480634;32;32804;-86
2022/01/03 05:59:18;;;;;;;;;;;;;;;15.60;44.12;98935.03;4482542;32;33846;-86
2022/01/03 06:01:47;;;;;;;;;;;;;;;15.69;44.02;98935.00;4482815;32;34491;-87
2022/01/03 06:04:35;;;;;;;;;;;;;;;15.48;44.54;98934.28;4482746;32;35039;-86
2022/01/03 06:07:05;;;;;;;;;;;;;;;15.24;45.02;98943.25;4481360;32;33426;-86
2022/01/03 06:09:33;;;;;;;;;;;;;;;15.62;44.23;98936.78;4481245;32;34153;-87
2022/01/03 06:12:01;;;;;;;;;;;;;;;15.81;43.87;98929.62;4481201;32;35020;-83
2022/01/03 06:14:29;;;;;;;;;;;;;;;16.31;42.85;98925.47;4475578;32;34689;-87
2022/01/03 06:16:57;;;;;;;;;;;;;;;15.50;44.47;98924.72;4482837;32;34476;-84
2022/01/03 06:19:25;;;;;;;;;;;;;;;15.79;44.07;98921.78;4481949;32;33794;-86
2022/01/03 06:21:52;;;;;;;;;;;;;;;15.69;44.37;98922.78;4481973;32;34040;-85
2022/01/03 06:24:20;;;;;;;;;;;;;;;15.97;43.89;98925.91;4481707;32;34023;-84
2022/01/03 06:26:48;;;;;;;;;;;;;;;15.79;44.37;98927.00;4483109;32;34490;-84
2022/01/03 06:29:15;;;;;;;;;;;;;;;16.03;43.84;98941.53;4483272;32;34064;-85
2022/01/03 06:31:43;;;;;;;;;;;;;;;16.09;43.85;98934.47;4482927;32;34016;-85
2022/01/03 06:34:11;;;;;;;;;;;;;;;15.87;44.33;98955.66;4482776;32;34129;-84
2022/01/03 06:36:38;;;;;;;;;;;;;;;15.88;44.46;98952.19;4483013;32;33579;-85
2022/01/03 06:39:06;;;;;;;;;;;;;;;15.68;44.91;98970.72;4483194;32;33703;-85
2022/01/03 06:41:34;;;;;;;;;;;;;;;15.98;44.26;98960.75;4482999;32;34650;-85
2022/01/03 06:44:01;;;;;;;;;;;;;;;16.06;43.98;98961.53;4482867;32;34871;-85
2022/01/03 06:46:28;;;;;;;;;;;;;;;15.89;44.24;98953.91;4481532;32;33064;-87
2022/01/03 06:48:56;;;;;;;;;;;;;;;16.19;43.49;98952.66;4482512;32;34007;-87
2022/01/03 06:51:23;;;;;;;;;;;;;;;15.91;43.57;98939.09;4482728;32;35078;-86
2022/01/03 06:53:51;;;;;;;;;;;;;;;14.38;45.63;98936.97;4482726;32;33822;-84
2022/01/03 06:56:18;;;;;;;;;;;;;;;14.97;44.35;98927.84;4482585;32;33080;-87
2022/01/03 06:58:46;;;;;;;;;;;;;;;15.47;43.37;98918.66;4482214;32;33950;-84
2022/01/03 07:01:14;;;;;;;;;;;;;;;15.03;44.74;98912.97;4482788;32;34068;-86
2022/01/03 07:03:41;;;;;;;;;;;;;;;14.56;45.56;98906.44;4482686;32;34627;-87
2022/01/03 07:06:08;;;;;;;;;;;;;;;14.95;44.95;98909.59;4482544;32;33625;-85
2022/01/03 07:08:36;;;;;;;;;;;;;;;15.09;44.78;98912.94;4482807;32;34361;-84
2022/01/03 07:11:03;;;;;;;;;;;;;;;15.24;44.33;98898.88;4482672;32;33401;-84
2022/01/03 07:13:40;;;;;;;;;;;;;;;14.23;46.27;98904.00;4482122;32;34414;-84
2022/01/03 07:18:56;;;;;;;;;;;;;;;14.29;46.54;98922.25;4483347;32;34799;-86
2022/01/03 07:21:24;;;;;;;;;;;;;;;13.09;49.55;98916.56;4484855;32;33928;-86
2022/01/03 07:23:51;;;;;;;;;;;;;;;13.32;47.77;98913.94;4484520;32;34894;-82
2022/01/03 07:26:18;;;;;;;;;;;;;;;13.47;46.49;98913.91;4483120;32;34129;-83
2022/01/03 07:28:46;;;;;;;;;;;;;;;13.44;47.64;98915.66;4483188;32;34350;-86
2022/01/03 07:31:13;;;;;;;;;;;;;;;14.39;45.14;98899.56;4484340;32;34979;-87
2022/01/03 07:33:40;;;;;;;;;;;;;;;13.85;44.91;98889.44;4484142;32;33993;-87
2022/01/03 07:36:09;;;;;;;;;;;;;;;13.94;45.24;98897.25;4484351;32;34419;-85
2022/01/03 07:38:38;;;;;;;;;;;;;;;14.35;44.13;98893.50;4484277;32;35059;-84
2022/01/03 07:41:05;;;;;;;;;;;;;;;14.63;42.71;98895.97;4484264;32;34517;-87
2022/01/03 07:43:32;;;;;;;;;;;;;;;14.05;43.36;98892.84;4484282;32;35104;-87
2022/01/03 07:46:00;;;;;;;;;;;;;;;14.02;43.02;98887.63;4483980;31;33380;-84
2022/01/03 07:48:27;;;;;;;;;;;;;;;14.62;42.28;98878.56;4483965;32;35101;-84
2022/01/03 07:50:54;;;;;;;;;;;;;;;14.57;42.10;98884.66;4484404;32;33819;-86
2022/01/03 07:53:21;;;;;;;;;;;;;;;14.28;42.34;98886.59;4484066;32;33617;-87
2022/01/03 07:55:49;;;;;;;;;;;;;;;14.52;42.05;98888.22;4484012;32;32835;-84
2022/01/03 07:58:17;;;;;;;;;;;;;;;14.60;41.85;98923.78;4484166;31;34929;-84
2022/01/03 08:00:45;;;;;;;;;;;;;;;14.51;42.34;98933.44;4484444;32;34371;-84
2022/01/03 08:03:13;;;;;;;;;;;;;;;14.87;41.15;98921.84;4482674;32;34489;-86
2022/01/03 08:05:40;;;;;;;;;;;;;;;14.86;41.43;98911.41;4482889;32;33151;-84
2022/01/03 08:08:09;;;;;;;;;;;;;;;15.37;41.08;98912.66;4484130;32;33855;-86
2022/01/03 08:10:37;;;;;;;;;;;;;;;14.86;41.57;98938.38;4484076;32;34074;-84
2022/01/03 08:13:04;;;;;;;;;;;;;;;15.55;40.53;98946.41;4483997;32;34399;-85
2022/01/03 08:15:31;;;;;;;;;;;;;;;15.45;40.64;98936.94;4483860;32;33552;-84
2022/01/03 08:17:59;;;;;;;;;;;;;;;15.47;40.95;98935.19;4482564;32;34528;-85
2022/01/03 08:20:26;;;;;;;;;;;;;;;15.17;41.28;98949.41;4483934;32;34116;-86
2022/01/03 08:22:53;;;;;;;;;;;;;;;15.23;41.16;98958.97;4483962;32;34239;-87
2022/01/03 08:25:20;;;;;;;;;;;;;;;14.99;41.55;98950.44;4483878;32;33271;-85
2022/01/03 08:27:47;;;;;;;;;;;;;;;15.48;40.17;98960.41;4483892;32;33662;-84
2022/01/03 08:30:15;;;;;;;;;;;;;;;15.11;41.24;98940.78;4483641;32;33920;-84
2022/01/03 08:32:42;;;;;;;;;;;;;;;15.52;41.03;98954.28;4483631;32;34779;-81
2022/01/03 08:35:09;;;;;;;;;;;;;;;14.72;41.91;98942.84;4483917;32;33432;-86
2022/01/03 08:37:37;;;;;;;;;;;;;;;14.93;42.19;98963.56;4483617;32;35106;-87
2022/01/03 08:40:06;;;;;;;;;;;;;;;14.38;43.03;98944.78;4483775;32;34221;-87
2022/01/03 08:42:33;;;;;;;;;;;;;;;15.17;42.21;98952.03;4483474;32;34465;-86
2022/01/03 08:45:01;;;;;;;;;;;;;;;14.27;43.74;98950.06;4483565;31;33941;-84
2022/01/03 08:47:29;;;;;;;;;;;;;;;14.78;42.56;98963.69;4482566;32;34200;-86
2022/01/03 08:49:56;;;;;;;;;;;;;;;15.70;40.14;98979.37;4483609;32;34413;-87
2022/01/03 08:52:23;;;;;;;;;;;;;;;14.49;43.29;98972.56;4482354;32;34426;-86
2022/01/03 08:54:51;;;;;;;;;;;;;;;15.40;41.30;98972.69;4483774;32;33726;-86
2022/01/03 08:57:19;;;;;;;;;;;;;;;15.09;42.26;98977.34;4483603;32;34099;-86
2022/01/03 08:59:46;;;;;;;;;;;;;;;15.73;41.15;98979.37;4483616;32;35347;-85
2022/01/03 09:02:15;;;;;;;;;;;;;;;15.28;42.10;98971.06;4483765;32;33711;-85
2022/01/03 09:04:43;;;;;;;;;;;;;;;14.60;43.66;98986.41;4483801;32;33355;-86
2022/01/03 09:07:10;;;;;;;;;;;;;;;15.35;41.71;98979.72;4482471;32;34220;-85
2022/01/03 09:09:38;;;;;;;;;;;;;;;15.23;42.36;98982.47;4482375;32;34326;-85
2022/01/03 09:12:09;;;;;;;;;;;;;;;15.78;41.68;98984.53;4483782;32;33927;-86
2022/01/03 09:14:36;;;;;;;;;;;;;;;15.45;42.87;98968.28;4483334;32;33654;-85
2022/01/03 09:17:03;;;;;;;;;;;;;;;15.07;42.87;99003.44;4483428;32;34163;-86
2022/01/03 09:19:31;;;;;;;;;;;;;;;15.47;41.52;98995.28;4483646;32;34457;-85
2022/01/03 09:22:20;;;;;;;;;;;;;;;14.83;43.34;98996.69;4483398;32;33892;-86
2022/01/03 09:30:10;;;;;;;;;;;;;;;15.72;41.53;98992.44;4483583;32;34490;-85
2022/01/03 09:32:37;;;;;;;;;;;;;;;14.84;42.76;99001.00;4483275;32;32701;-87
2022/01/03 09:35:05;;;;;;;;;;;;;;;15.04;42.35;98971.31;4482408;32;34169;-84
2022/01/03 09:37:33;;;;;;;;;;;;;;;14.76;43.32;98976.72;4483816;32;34135;-85
2022/01/03 09:40:00;;;;;;;;;;;;;;;14.40;44.13;98976.94;4483337;32;35249;-86
2022/01/03 09:42:28;;;;;;;;;;;;;;;15.25;42.57;98959.78;4481557;32;34501;-84
2022/01/03 09:44:56;;;;;;;;;;;;;;;15.63;41.28;98956.78;4482250;32;34197;-84
2022/01/03 09:47:23;;;;;;;;;;;;;;;15.08;42.58;98952.13;4483394;32;34242;-84
2022/01/03 09:49:51;;;;;;;;;;;;;;;15.63;41.50;98971.59;4482566;32;34289;-87
2022/01/03 09:52:19;;;;;;;;;;;;;;;14.57;43.27;98949.87;4483472;32;35054;-82
2022/01/03 09:54:47;;;;;;;;;;;;;;;14.85;43.25;98965.37;4481830;32;33486;-85
2022/01/03 09:57:14;;;;;;;;;;;;;;;14.36;44.00;98971.75;4483179;32;34140;-87
2022/01/03 09:59:42;;;;;;;;;;;;;;;14.90;42.69;98962.72;4481898;32;34182;-84
2022/01/03 10:02:09;;;;;;;;;;;;;;;15.13;42.48;98963.38;4481917;32;33347;-86
2022/01/03 10:04:37;;;;;;;;;;;;;;;15.67;40.71;98963.75;4482007;32;33136;-85
2022/01/03 10:07:07;;;;;;;;;;;;;;;15.65;41.34;98956.78;4483362;32;33957;-84
2022/01/03 10:09:34;;;;;;;;;;;;;;;16.10;39.85;98954.50;4481822;32;33998;-85
2022/01/03 10:12:02;;;;;;;;;;;;;;;14.91;42.39;98954.88;4481842;32;35041;-84
2022/01/03 10:14:29;;;;;;;;;;;;;;;16.13;39.45;98939.66;4483293;32;33373;-85
2022/01/03 10:16:56;;;;;;;;;;;;;;;16.03;40.14;98952.00;4483079;32;33897;-86
2022/01/03 10:19:25;;;;;;;;;;;;;;;15.82;40.70;98950.50;4482954;31;35308;-85
2022/01/03 10:21:52;;;;;;;;;;;;;;;17.00;38.20;98933.13;4481780;32;34832;-86
2022/01/03 10:24:21;;;;;;;;;;;;;;;15.25;41.61;98933.69;4482914;32;34008;-85
2022/01/03 10:26:52;;;;;;;;;;;;;;;15.56;41.35;98924.63;4481872;32;35088;-85
2022/01/03 10:29:20;;;;;;;;;;;;;;;15.85;41.06;98920.84;4482859;32;34049;-85
2022/01/03 10:31:48;;;;;;;;;;;;;;;15.45;41.70;98913.44;4482783;32;34349;-86
2022/01/03 10:34:16;;;;;;;;;;;;;;;14.88;42.71;98904.44;4482872;32;34480;-88
2022/01/03 10:36:45;;;;;;;;;;;;;;;14.71;43.14;98892.41;4482671;32;34156;-86
2022/01/03 10:39:18;;;;;;;;;;;;;;;15.01;42.43;98893.00;4482923;32;35236;-87
2022/01/03 10:41:47;;;;;;;;;;;;;;;15.38;42.22;98898.72;4482844;32;34145;-84
2022/01/03 10:44:30;;;;;;;;;;;;;;;14.78;43.42;98908.88;4482385;31;33260;-84
2022/01/03 10:46:58;;;;;;;;;;;;;;;15.40;42.35;98901.31;4482684;32;33855;-84
2022/01/03 10:49:26;;;;;;;;;;;;;;;15.47;42.00;98908.19;4482726;32;34360;-86
2022/01/03 10:52:09;;;;;;;;;;;;;;;16.26;40.76;98917.69;4481603;32;34652;-85
2022/01/03 10:54:36;;;;;;;;;;;;;;;16.97;39.17;98909.63;4482396;32;33939;-84
2022/01/03 10:57:04;;;;;;;;;;;;;;;16.28;40.78;98909.81;4484401;32;34163;-86
2022/01/03 10:59:34;;;;;;;;;;;;;;;16.25;40.62;98909.84;4484422;32;34299;-84
2022/01/03 11:02:06;;;;;;;;;;;;;;;16.82;39.33;98912.50;4484578;32;34382;-87
2022/01/03 11:13:07;;;;;;;;;;;;;;;17.69;37.46;98886.41;4484468;32;34771;-84
2022/01/03 11:15:35;;;;;;;;;;;;;;;16.79;39.34;98889.00;4484340;32;34060;-86
2022/01/03 11:18:16;;;;;;;;;;;;;;;16.17;40.47;98893.41;4484465;32;34194;-87
2022/01/03 11:20:45;;;;;;;;;;;;;;;16.44;40.38;98887.78;4484431;32;34241;-85
2022/01/03 11:23:19;;;;;;;;;;;;;;;16.91;39.97;98894.00;4483971;32;34448;-88
2022/01/03 11:25:47;;;;;;;;;;;;;;;17.12;39.14;98889.28;4484654;32;33599;-84
2022/01/03 11:28:14;;;;;;;;;;;;;;;16.39;40.11;98913.13;4484108;32;35481;-87
2022/01/03 11:30:42;;;;;;;;;;;;;;;17.37;38.55;98908.03;4483338;32;35774;-87
2022/01/03 11:33:10;;;;;;;;;;;;;;;17.00;38.87;98906.94;4483149;32;34028;-87
2022/01/03 11:35:37;;;;;;;;;;;;;;;17.06;39.07;98910.34;4484201;32;33782;-87
2022/01/03 11:38:04;;;;;;;;;;;;;;;17.14;38.38;98897.97;4484339;32;35056;-85
2022/01/03 11:40:32;;;;;;;;;;;;;;;16.84;39.16;98894.16;4482937;32;34028;-85
2022/01/03 11:42:59;;;;;;;;;;;;;;;16.65;39.07;98883.09;4484272;32;33561;-88
2022/01/03 11:45:26;;;;;;;;;;;;;;;16.85;38.60;98895.87;4484434;32;34182;-87
2022/01/03 11:47:54;;;;;;;;;;;;;;;16.19;40.12;98891.62;4484547;32;34182;-85
2022/01/03 11:50:22;;;;;;;;;;;;;;;15.66;40.74;98901.06;4482972;32;34065;-87
2022/01/03 11:52:49;;;;;;;;;;;;;;;14.95;42.10;98896.53;4482814;32;33890;-86
2022/01/03 11:55:16;;;;;;;;;;;;;;;15.16;41.54;98902.44;4484103;32;34439;-86
2022/01/03 11:57:58;;;;;;;;;;;;;;;15.93;40.48;98905.06;4482804;32;33600;-86
2022/01/03 12:06:00;;;;;;;;;;;;;;;15.40;40.85;98917.84;4481738;32;33375;-85
2022/01/03 12:08:29;;;;;;;;;;;;;;;15.66;40.65;98924.56;4481944;32;34609;-85
2022/01/03 12:11:00;;;;;;;;;;;;;;;15.61;40.71;98913.25;4483234;32;34444;-84
2022/01/03 12:13:47;;;;;;;;;;;;;;;15.26;40.69;98914.50;4483100;32;35126;-85
2022/01/03 12:16:14;;;;;;;;;;;;;;;15.66;41.06;98906.28;4482170;32;33166;-88
2022/01/03 12:19:00;;;;;;;;;;;;;;;15.94;40.42;98897.19;4482178;32;34295;-87
2022/01/03 12:21:46;;;;;;;;;;;;;;;16.98;37.79;98887.78;4482860;32;33735;-86
2022/01/03 12:24:36;;;;;;;;;;;;;;;15.47;41.19;98888.16;4482921;32;34003;-85
2022/01/03 12:27:09;;;;;;;;;;;;;;;16.32;39.76;98880.09;4453441;31;33203;-87
2022/01/03 12:32:23;;;;;;;;;;;;;;;15.32;42.01;98883.97;4483095;32;34021;-85
2022/01/03 12:35:17;;;;;;;;;;;;;;;15.37;41.58;98883.91;4482763;32;34715;-87
2022/01/03 12:37:50;;;;;;;;;;;;;;;15.08;42.31;98885.09;4480459;31;33368;-87
2022/01/03 12:40:22;;;;;;;;;;;;;;;15.02;43.15;98906.03;4482939;32;33528;-84
2022/01/03 12:42:52;;;;;;;;;;;;;;;14.58;44.02;98893.38;4482349;32;34487;-86
2022/01/03 12:45:29;;;;;;;;;;;;;;;14.74;43.84;98902.81;4482007;31;33864;-87
2022/01/03 12:48:09;;;;;;;;;;;;;;;15.19;43.21;98916.34;4483032;32;33238;-87
2022/01/03 12:50:36;;;;;;;;;;;;;;;15.47;42.64;98901.22;4480120;32;34065;-86
2022/01/03 12:53:04;;;;;;;;;;;;;;;15.11;43.44;98893.78;4471060;32;34221;-87
2022/01/03 12:55:37;;;;;;;;;;;;;;;14.76;44.32;98910.63;4467041;32;34460;-87
2022/01/03 12:58:13;;;;;;;;;;;;;;;15.67;42.31;98910.63;4476366;32;32991;-87
2022/01/03 13:00:42;;;;;;;;;;;;;;;15.87;41.44;98919.06;4460752;32;20707;-85
2022/01/03 13:03:28;;;;;;;;;;;;;;;15.97;41.47;98909.38;4473786;32;34938;-88
2022/01/03 13:06:07;;;;;;;;;;;;;;;15.36;43.01;98910.94;4483637;32;34117;-86
2022/01/03 13:08:35;;;;;;;;;;;;;;;15.56;42.57;98906.34;4483712;32;34482;-88
2022/01/03 13:11:04;;;;;;;;;;;;;;;15.79;41.86;98905.22;4483630;32;34970;-85
2022/01/03 13:13:31;;;;;;;;;;;;;;;16.20;41.33;98911.66;4483589;32;35310;-89
2022/01/03 13:15:59;;;;;;;;;;;;;;;16.37;40.64;98914.06;4472702;32;35069;-85
2022/01/03 13:18:26;;;;;;;;;;;;;;;16.73;40.18;98910.00;4467987;32;34118;-83
2022/01/03 13:20:57;;;;;;;;;;;;;;;16.93;39.51;98914.91;4467725;32;35212;-87
2022/01/03 13:23:24;;;;;;;;;;;;;;;16.54;40.37;98917.28;4468062;32;35374;-88
2022/01/03 13:26:04;;;;;;;;;;;;;;;16.63;40.17;98922.38;4467983;32;34776;-86